Time;durP1;ratioP1;P1;durP2;ratioP2;P2;SDS_P1;SDS_P2;PMS_P1;PMS_P2;Temp;Humidity;BMP_temperature;BMP_pressure;BME280_temperature;BME280_humidity;BME280_pressure;Samples;Min_cycle;Max_cycle;Signal;HPM_P1;HPM_P2
2023/06/12 00:01:19;;;;;;;13.63;8.32;;;18.20;82.30;;;;;;5073732;28;20055;-49
2023/06/12 00:03:49;;;;;;;12.00;9.20;;;18.10;82.10;;;;;;5079374;28;20024;-50
2023/06/12 00:06:17;;;;;;;12.02;9.18;;;18.00;82.40;;;;;;5068946;28;20100;-50
2023/06/12 00:08:44;;;;;;;10.55;9.27;;;18.00;82.70;;;;;;5070687;28;20025;-48
2023/06/12 00:11:12;;;;;;;13.00;8.63;;;18.00;82.60;;;;;;5087863;28;20016;-48
2023/06/12 00:13:42;;;;;;;10.80;9.40;;;18.00;82.40;;;;;;5088975;28;20081;-49
2023/06/12 00:16:09;;;;;;;12.10;9.77;;;17.90;82.70;;;;;;5075135;28;20078;-51
2023/06/12 00:18:35;;;;;;;12.73;9.43;;;17.90;82.30;;;;;;5076940;28;20460;-48
2023/06/12 00:21:03;;;;;;;14.63;9.93;;;17.90;82.80;;;;;;5068927;28;20028;-49
2023/06/12 00:23:29;;;;;;;14.48;9.43;;;17.90;82.90;;;;;;5077139;28;20024;-47
2023/06/12 00:25:55;;;;;;;12.38;9.70;;;17.80;83.30;;;;;;5067076;28;20017;-48
2023/06/12 00:28:21;;;;;;;11.82;10.45;;;17.80;83.10;;;;;;5070182;28;20546;-49
2023/06/12 00:30:47;;;;;;;14.70;9.57;;;17.70;83.70;;;;;;5075728;28;20105;-48
2023/06/12 00:33:13;;;;;;;11.77;10.55;;;17.80;83.80;;;;;;5074655;28;20031;-50
2023/06/12 00:35:38;;;;;;;16.02;11.55;;;17.80;84.30;;;;;;5079579;28;20036;-48
2023/06/12 00:38:06;;;;;;;11.50;9.82;;;17.80;83.80;;;;;;5069079;28;20044;-49
2023/06/12 00:40:32;;;;;;;12.23;10.23;;;17.70;84.70;;;;;;5064034;28;20038;-51
2023/06/12 00:42:58;;;;;;;13.00;10.30;;;17.70;84.70;;;;;;5085092;28;20028;-48
2023/06/12 00:45:24;;;;;;;15.52;10.68;;;17.70;85.30;;;;;;5071374;28;20016;-51
2023/06/12 00:47:56;;;;;;;13.07;10.75;;;17.60;85.50;;;;;;5072146;28;20081;-49
2023/06/12 00:50:28;;;;;;;12.77;10.25;;;17.60;86.20;;;;;;5066684;28;20017;-49
2023/06/12 00:52:59;;;;;;;12.30;10.10;;;17.60;85.70;;;;;;5067669;28;20031;-50
2023/06/12 00:55:25;;;;;;;12.15;10.90;;;17.50;86.60;;;;;;5067133;28;20028;-48
2023/06/12 00:57:51;;;;;;;16.10;11.82;;;17.40;85.90;;;;;;5069971;28;20043;-49
2023/06/12 01:00:18;;;;;;;11.98;10.02;;;17.40;87.30;;;;;;5079297;28;20032;-50
2023/06/12 01:02:54;;;;;;;12.05;10.43;;;17.30;87.40;;;;;;5068842;28;20024;-48
2023/06/12 01:05:35;;;;;;;11.40;10.00;;;17.30;88.20;;;;;;5067979;28;20031;-51
2023/06/12 01:08:24;;;;;;;15.23;9.85;;;17.20;89.20;;;;;;5068803;28;20027;-50
2023/06/12 01:10:55;;;;;;;12.82;10.65;;;17.20;89.80;;;;;;5076549;28;20028;-48
2023/06/12 01:13:21;;;;;;;17.02;10.75;;;17.20;90.10;;;;;;5073506;28;20021;-49
2023/06/12 01:15:47;;;;;;;13.57;11.02;;;17.10;90.70;;;;;;5073232;28;20035;-48
2023/06/12 01:18:14;;;;;;;15.32;11.98;;;17.10;90.60;;;;;;5069899;28;20029;-50
2023/06/12 01:20:43;;;;;;;13.45;10.82;;;17.10;90.80;;;;;;5075379;28;20298;-47
2023/06/12 01:23:11;;;;;;;15.32;11.07;;;17.10;91.20;;;;;;5072666;28;20028;-50
2023/06/12 01:25:49;;;;;;;14.90;12.25;;;17.10;91.70;;;;;;5080094;28;20023;-49
2023/06/12 01:28:43;;;;;;;15.15;11.13;;;17.00;92.10;;;;;;5077240;28;20012;-48
2023/06/12 01:31:25;;;;;;;15.98;11.98;;;17.00;92.40;;;;;;5081973;28;20017;-51
2023/06/12 01:34:07;;;;;;;13.05;11.65;;;17.00;92.60;;;;;;5076878;28;20067;-49
2023/06/12 01:36:41;;;;;;;14.18;12.13;;;17.10;92.80;;;;;;5069003;28;20028;-48
2023/06/12 01:39:08;;;;;;;15.20;11.43;;;17.10;93.30;;;;;;5075920;28;20028;-48
2023/06/12 01:41:35;;;;;;;15.40;11.48;;;17.00;93.60;;;;;;5091198;28;20024;-49
2023/06/12 01:44:10;;;;;;;15.30;11.57;;;17.00;94.00;;;;;;5082560;28;20139;-49
2023/06/12 01:46:36;;;;;;;13.23;11.20;;;17.00;94.60;;;;;;5074697;28;20059;-47
2023/06/12 01:49:06;;;;;;;14.43;11.95;;;17.00;94.70;;;;;;5070101;28;20020;-49
2023/06/12 01:51:32;;;;;;;15.13;12.40;;;17.00;94.80;;;;;;5071800;28;20013;-49
2023/06/12 01:53:57;;;;;;;17.38;12.60;;;16.90;95.70;;;;;;5079864;28;20149;-48
2023/06/12 01:56:26;;;;;;;17.55;13.25;;;17.00;95.00;;;;;;5070618;28;20370;-48
2023/06/12 01:58:54;;;;;;;15.60;13.07;;;16.90;95.60;;;;;;5071078;28;20374;-49
2023/06/12 02:01:20;;;;;;;15.65;12.57;;;16.90;95.60;;;;;;5071572;28;20149;-48
2023/06/12 02:03:49;;;;;;;18.00;14.10;;;16.90;95.80;;;;;;5071236;28;20025;-50
2023/06/12 02:06:16;;;;;;;18.08;13.95;;;16.90;95.30;;;;;;5079184;28;20021;-48
2023/06/12 02:08:42;;;;;;;18.35;13.77;;;16.90;95.20;;;;;;5071307;28;20033;-50
2023/06/12 02:11:08;;;;;;;14.88;12.85;;;17.00;94.90;;;;;;5084529;28;20017;-48
2023/06/12 02:13:34;;;;;;;15.38;13.48;;;17.00;94.90;;;;;;5073452;28;20478;-49
2023/06/12 02:16:05;;;;;;;15.40;13.55;;;17.00;95.40;;;;;;5077356;28;20062;-51
2023/06/12 02:18:34;;;;;;;17.15;14.35;;;16.90;95.30;;;;;;5071164;28;20100;-49
2023/06/12 02:21:00;;;;;;;15.38;13.20;;;16.90;95.90;;;;;;5069168;28;20509;-48
2023/06/12 02:23:26;;;;;;;17.95;13.18;;;16.90;96.00;;;;;;5057053;28;20063;-47
2023/06/12 02:25:52;;;;;;;19.27;13.77;;;16.90;95.90;;;;;;5067823;28;20048;-49
2023/06/12 02:28:18;;;;;;;15.00;13.13;;;16.80;96.00;;;;;;5084867;28;20054;-48
2023/06/12 02:30:43;;;;;;;16.85;12.75;;;16.70;96.70;;;;;;5082693;28;20542;-48
2023/06/12 02:33:12;;;;;;;19.00;12.77;;;16.70;97.20;;;;;;5086644;28;20432;-47
2023/06/12 02:35:42;;;;;;;16.58;12.68;;;16.70;97.00;;;;;;5077209;28;20024;-48
2023/06/12 02:38:08;;;;;;;17.40;13.77;;;16.70;97.50;;;;;;5069260;28;20108;-49
2023/06/12 02:40:34;;;;;;;16.35;13.75;;;16.60;97.40;;;;;;5085375;28;20028;-49
2023/06/12 02:42:59;;;;;;;18.02;13.27;;;16.60;97.10;;;;;;5070834;28;20019;-50
2023/06/12 02:45:25;;;;;;;18.23;14.15;;;16.60;97.90;;;;;;5078424;28;20040;-49
2023/06/12 02:47:51;;;;;;;20.15;14.95;;;16.50;97.10;;;;;;5078748;28;20035;-50
2023/06/12 02:50:20;;;;;;;18.58;14.55;;;16.50;97.60;;;;;;5069397;28;20051;-49
2023/06/12 02:52:46;;;;;;;17.73;14.10;;;16.40;97.30;;;;;;5078868;28;20029;-49
2023/06/12 02:55:12;;;;;;;16.60;14.40;;;16.40;96.80;;;;;;5068839;28;20028;-48
2023/06/12 02:57:38;;;;;;;17.05;13.45;;;16.50;96.60;;;;;;5070276;28;20394;-49
2023/06/12 03:00:05;;;;;;;16.58;14.07;;;16.40;97.30;;;;;;5060972;28;20339;-49
2023/06/12 03:02:31;;;;;;;19.67;15.10;;;16.40;97.00;;;;;;5070641;28;20023;-47
2023/06/12 03:04:59;;;;;;;18.45;14.13;;;16.40;96.80;;;;;;5069536;28;20386;-48
2023/06/12 03:07:27;;;;;;;15.73;13.13;;;16.40;96.90;;;;;;5076707;28;20024;-47
2023/06/12 03:09:52;;;;;;;15.02;13.43;;;16.30;97.10;;;;;;5070047;28;20025;-48
2023/06/12 03:12:18;;;;;;;17.77;13.55;;;16.30;97.50;;;;;;5083875;28;20026;-48
2023/06/12 03:14:44;;;;;;;15.48;12.77;;;16.30;97.20;;;;;;5073120;28;20024;-50
2023/06/12 03:17:10;;;;;;;18.63;13.40;;;16.30;97.20;;;;;;5077511;28;20110;-50
2023/06/12 03:19:39;;;;;;;20.88;14.32;;;16.30;97.50;;;;;;5076080;28;20055;-51
2023/06/12 03:22:07;;;;;;;18.38;14.18;;;16.30;97.60;;;;;;5086261;28;20060;-48
2023/06/12 03:24:33;;;;;;;16.40;13.38;;;16.30;98.10;;;;;;5069891;28;20385;-49
2023/06/12 03:26:59;;;;;;;15.65;13.52;;;16.30;98.10;;;;;;5077758;28;20020;-48
2023/06/12 03:29:26;;;;;;;16.00;13.20;;;16.20;98.20;;;;;;5069607;28;20031;-51
2023/06/12 03:31:53;;;;;;;14.45;12.95;;;16.20;99.10;;;;;;5068039;28;20087;-50
2023/06/12 03:34:19;;;;;;;16.40;13.60;;;16.20;99.30;;;;;;5068638;28;20066;-47
2023/06/12 03:36:46;;;;;;;17.10;14.15;;;16.10;99.60;;;;;;5059825;28;20459;-47
2023/06/12 03:39:11;;;;;;;16.42;12.93;;;16.10;99.90;;;;;;5077134;28;20535;-47
2023/06/12 03:41:56;;;;;;;14.88;12.18;;;16.10;99.90;;;;;;5086146;28;20020;-47
2023/06/12 03:44:28;;;;;;;16.58;12.77;;;16.10;99.40;;;;;;5084063;28;20025;-50
2023/06/12 03:46:54;;;;;;;17.50;12.55;;;16.10;99.40;;;;;;5078396;28;20024;-48
2023/06/12 03:49:23;;;;;;;18.65;14.13;;;16.10;99.10;;;;;;5079154;28;20032;-49
2023/06/12 03:51:51;;;;;;;18.48;12.52;;;16.10;99.90;;;;;;5072449;28;20020;-49
2023/06/12 03:54:20;;;;;;;16.05;11.98;;;16.10;99.90;;;;;;5084406;28;20103;-50
2023/06/12 03:56:45;;;;;;;17.40;13.15;;;16.10;99.20;;;;;;5076675;28;20020;-51
2023/06/12 03:59:15;;;;;;;15.60;12.77;;;16.20;98.90;;;;;;5077632;28;20486;-51
2023/06/12 04:01:42;;;;;;;16.38;12.88;;;16.20;98.40;;;;;;5077716;28;20055;-50
2023/06/12 04:04:09;;;;;;;18.45;13.10;;;16.30;98.40;;;;;;5069085;28;20028;-49
2023/06/12 04:06:40;;;;;;;18.15;12.25;;;16.40;98.10;;;;;;5084637;28;20373;-47
2023/06/12 04:09:14;;;;;;;;;;;16.50;97.80;;;;;;5082593;28;20516;-48
2023/06/12 04:11:43;;;;;;;14.27;11.93;;;16.50;98.00;;;;;;5073898;28;19908;-50
2023/06/12 04:14:12;;;;;;;16.02;12.00;;;16.50;98.50;;;;;;5060963;28;20080;-50
2023/06/12 04:16:38;;;;;;;14.13;11.77;;;16.50;98.90;;;;;;5076306;28;20598;-48
2023/06/12 04:19:05;;;;;;;17.85;12.57;;;16.50;99.20;;;;;;5087738;28;20029;-50
2023/06/12 04:21:35;;;;;;;14.98;12.48;;;16.50;99.60;;;;;;5083945;28;20115;-47
2023/06/12 04:24:03;;;;;;;17.00;13.13;;;16.50;99.20;;;;;;5090147;28;20028;-49
2023/06/12 04:26:31;;;;;;;16.20;11.77;;;16.50;99.90;;;;;;5081293;28;20016;-50
2023/06/12 04:28:57;;;;;;;18.25;12.73;;;16.50;99.80;;;;;;5073664;28;20029;-47
2023/06/12 04:31:27;;;;;;;15.82;12.15;;;16.60;98.80;;;;;;5082575;28;20016;-47
2023/06/12 04:33:54;;;;;;;19.55;13.32;;;16.70;98.40;;;;;;5081527;28;20039;-47
2023/06/12 04:36:21;;;;;;;17.67;12.93;;;16.70;98.10;;;;;;5078717;28;20019;-47
2023/06/12 04:38:50;;;;;;;16.33;13.23;;;16.80;98.20;;;;;;5078979;28;20073;-50
2023/06/12 04:41:19;;;;;;;16.45;12.43;;;16.90;98.80;;;;;;5083425;28;20036;-47
2023/06/12 04:43:48;;;;;;;16.23;12.60;;;16.90;98.10;;;;;;5082083;28;20028;-47
2023/06/12 04:46:14;;;;;;;14.20;11.05;;;17.00;97.50;;;;;;5081326;28;20505;-47
2023/06/12 04:48:41;;;;;;;14.95;10.57;;;17.00;97.00;;;;;;5081921;28;20032;-49
2023/06/12 04:51:08;;;;;;;17.67;11.63;;;17.10;96.80;;;;;;5078825;28;20099;-46
2023/06/12 04:53:34;;;;;;;16.45;11.18;;;17.10;96.50;;;;;;5070640;28;20059;-45
2023/06/12 04:56:04;;;;;;;14.43;9.77;;;17.10;95.80;;;;;;5059463;28;20079;-45
2023/06/12 04:58:30;;;;;;;15.10;11.35;;;17.20;95.70;;;;;;5069479;28;20020;-45
2023/06/12 05:00:56;;;;;;;13.23;10.23;;;17.30;95.30;;;;;;5069484;28;20063;-45
2023/06/12 05:03:22;;;;;;;12.25;9.45;;;17.50;94.70;;;;;;5073786;28;20212;-45
2023/06/12 05:05:49;;;;;;;14.20;10.20;;;17.70;94.20;;;;;;5079167;28;20025;-45
2023/06/12 05:08:15;;;;;;;12.85;9.07;;;17.80;93.20;;;;;;5072992;28;20046;-46
2023/06/12 05:10:41;;;;;;;12.88;9.88;;;17.90;93.00;;;;;;5087559;28;20021;-46
2023/06/12 05:13:07;;;;;;;10.68;9.23;;;18.00;93.00;;;;;;5077057;28;20023;-48
2023/06/12 05:15:33;;;;;;;12.35;9.60;;;18.20;92.40;;;;;;5083424;28;20016;-49
2023/06/12 05:18:00;;;;;;;12.52;9.05;;;18.20;92.00;;;;;;5086678;28;20046;-48
2023/06/12 05:20:26;;;;;;;9.48;8.10;;;18.30;91.30;;;;;;5074752;28;20027;-49
2023/06/12 05:22:51;;;;;;;10.40;9.02;;;18.30;91.00;;;;;;5079662;28;20032;-45
2023/06/12 05:25:17;;;;;;;11.57;8.95;;;18.30;91.00;;;;;;5068218;28;20024;-48
2023/06/12 05:27:43;;;;;;;11.32;9.13;;;18.30;90.80;;;;;;5066408;28;20029;-46
2023/06/12 05:30:10;;;;;;;12.50;8.73;;;18.40;90.60;;;;;;5076471;28;20315;-42
2023/06/12 05:32:36;;;;;;;10.93;8.18;;;18.30;90.80;;;;;;5072381;28;20012;-43
2023/06/12 05:35:02;;;;;;;11.90;8.20;;;18.40;90.70;;;;;;5075216;28;20028;-42
2023/06/12 05:37:28;;;;;;;12.23;7.93;;;18.40;90.40;;;;;;5070332;28;20024;-41
2023/06/12 05:39:54;;;;;;;11.30;8.45;;;18.40;90.40;;;;;;5067425;28;20139;-42
2023/06/12 05:42:19;;;;;;;11.85;8.35;;;18.50;90.20;;;;;;5066180;28;20071;-42
2023/06/12 05:44:48;;;;;;;14.07;7.60;;;18.50;90.20;;;;;;5066134;28;20020;-42
2023/06/12 05:47:14;;;;;;;9.20;7.82;;;18.50;90.50;;;;;;5078489;28;20024;-41
2023/06/12 05:49:40;;;;;;;8.40;7.25;;;18.60;89.50;;;;;;5075877;28;20064;-41
2023/06/12 05:52:11;;;;;;;11.25;7.70;;;18.70;89.90;;;;;;5066479;28;20127;-42
2023/06/12 05:54:39;;;;;;;12.60;8.32;;;18.70;89.90;;;;;;5066276;28;20040;-41
2023/06/12 05:57:06;;;;;;;11.23;7.90;;;18.90;88.80;;;;;;5065982;28;20029;-42
2023/06/12 05:59:32;;;;;;;10.25;8.05;;;18.90;88.40;;;;;;5073333;28;20470;-43
2023/06/12 06:01:58;;;;;;;10.40;7.82;;;19.00;88.70;;;;;;5070724;28;20525;-46
2023/06/12 06:04:25;;;;;;;11.95;7.97;;;19.10;88.00;;;;;;5056715;28;20536;-41
2023/06/12 06:06:53;;;;;;;12.60;7.80;;;19.10;87.30;;;;;;5071616;28;20019;-41
2023/06/12 06:09:19;;;;;;;11.70;7.45;;;19.20;86.40;;;;;;5062425;28;20023;-41
2023/06/12 06:11:45;;;;;;;10.27;7.28;;;19.20;86.20;;;;;;5069724;28;20212;-41
2023/06/12 06:14:12;;;;;;;9.02;6.25;;;19.20;86.40;;;;;;5081692;28;20034;-42
2023/06/12 06:16:38;;;;;;;10.02;6.60;;;19.40;84.40;;;;;;5073282;28;20115;-42
2023/06/12 06:19:03;;;;;;;9.70;6.32;;;19.40;84.60;;;;;;5070392;28;20470;-42
2023/06/12 06:21:33;;;;;;;7.93;6.32;;;19.40;84.00;;;;;;5075847;28;20036;-42
2023/06/12 06:23:58;;;;;;;8.33;5.97;;;19.50;84.00;;;;;;5070387;28;20035;-42
2023/06/12 06:26:24;;;;;;;14.63;6.72;;;19.50;84.00;;;;;;5071047;28;20103;-41
2023/06/12 06:28:50;;;;;;;11.05;6.60;;;19.60;81.70;;;;;;5068415;28;20043;-42
2023/06/12 06:31:16;;;;;;;11.88;5.47;;;19.80;81.40;;;;;;5077164;28;20024;-48
2023/06/12 06:33:43;;;;;;;7.90;5.65;;;19.90;79.20;;;;;;5075683;28;20044;-47
2023/06/12 06:36:08;;;;;;;7.50;5.18;;;20.00;78.50;;;;;;5078099;28;20033;-47
2023/06/12 06:38:34;;;;;;;7.32;5.50;;;20.20;77.20;;;;;;5072116;28;20313;-48
2023/06/12 06:41:00;;;;;;;9.18;5.22;;;20.30;77.20;;;;;;5078450;28;20402;-46
2023/06/12 06:43:26;;;;;;;13.02;6.55;;;20.40;78.00;;;;;;5069619;28;20033;-46
2023/06/12 06:45:52;;;;;;;7.25;4.63;;;20.40;76.20;;;;;;5069886;28;20089;-48
2023/06/12 06:48:38;;;;;;;10.40;5.35;;;20.60;75.20;;;;;;5074386;28;20525;-46
2023/06/12 06:51:03;;;;;;;14.13;5.07;;;20.80;74.90;;;;;;5037414;28;20375;-47
2023/06/12 06:53:31;;;;;;;9.38;5.30;;;20.80;74.40;;;;;;5074961;28;20024;-47
2023/06/12 06:55:57;;;;;;;9.88;5.07;;;20.90;73.80;;;;;;5073202;28;20021;-46
2023/06/12 06:58:23;;;;;;;11.77;4.65;;;21.10;72.70;;;;;;5073062;28;20020;-49
2023/06/12 07:00:49;;;;;;;9.43;4.78;;;21.10;71.80;;;;;;5071193;28;20032;-50
2023/06/12 07:03:15;;;;;;;6.75;4.28;;;21.20;70.70;;;;;;5063485;28;20393;-47
2023/06/12 07:05:41;;;;;;;8.05;4.18;;;21.40;68.10;;;;;;5078312;28;20024;-47
2023/06/12 07:08:07;;;;;;;6.10;4.30;;;21.50;67.90;;;;;;5078319;28;20024;-46
2023/06/12 07:10:32;;;;;;;8.40;4.00;;;21.70;67.00;;;;;;5068885;28;20075;-48
2023/06/12 07:12:58;;;;;;;5.32;4.13;;;21.90;66.70;;;;;;5078609;28;20020;-50
2023/06/12 07:15:25;;;;;;;7.25;4.80;;;21.90;67.10;;;;;;5073215;28;20025;-49
2023/06/12 07:17:52;;;;;;;7.22;4.38;;;22.00;66.60;;;;;;5072177;28;20034;-47
2023/06/12 07:20:18;;;;;;;7.93;4.30;;;22.00;67.90;;;;;;5077699;28;20393;-49
2023/06/12 07:22:44;;;;;;;9.02;4.40;;;22.20;67.10;;;;;;5077291;28;20036;-46
2023/06/12 07:25:10;;;;;;;7.95;4.22;;;22.20;66.50;;;;;;5081886;28;20028;-49
2023/06/12 07:27:35;;;;;;;5.13;4.18;;;22.50;66.60;;;;;;5080033;28;20044;-49
2023/06/12 07:30:01;;;;;;;7.40;4.30;;;22.50;66.30;;;;;;5082925;28;20062;-50
2023/06/12 07:32:27;;;;;;;9.98;4.93;;;22.70;66.80;;;;;;5081550;28;20024;-47
2023/06/12 07:34:54;;;;;;;9.85;4.38;;;22.80;64.80;;;;;;5073668;28;20056;-46
2023/06/12 07:37:20;;;;;;;8.70;4.00;;;22.90;64.90;;;;;;5084839;28;20232;-47
2023/06/12 07:39:47;;;;;;;6.70;4.07;;;23.00;62.10;;;;;;5079215;28;20023;-47
2023/06/12 07:42:13;;;;;;;8.38;4.10;;;23.20;60.50;;;;;;5073208;28;20024;-49
2023/06/12 07:44:40;;;;;;;5.80;3.67;;;23.30;59.90;;;;;;5073845;28;20039;-49
2023/06/12 07:47:07;;;;;;;4.97;4.00;;;23.50;58.30;;;;;;5070734;28;20490;-49
2023/06/12 07:49:33;;;;;;;6.05;4.03;;;23.70;57.50;;;;;;5073986;28;20012;-49
2023/06/12 07:51:59;;;;;;;7.80;3.47;;;23.90;56.40;;;;;;5085186;28;20073;-48
2023/06/12 07:54:24;;;;;;;8.00;3.58;;;24.00;55.80;;;;;;5067650;28;20385;-47
2023/06/12 07:56:53;;;;;;;4.93;3.20;;;24.10;55.00;;;;;;5069103;28;20039;-47
2023/06/12 07:59:19;;;;;;;6.55;3.22;;;24.30;55.90;;;;;;5064344;28;20062;-48
2023/06/12 08:01:45;;;;;;;7.65;3.47;;;24.40;54.30;;;;;;5074938;28;20050;-48
2023/06/12 08:04:10;;;;;;;7.18;3.60;;;24.70;54.50;;;;;;5067923;28;20517;-47
2023/06/12 08:06:40;;;;;;;7.43;3.72;;;24.80;53.30;;;;;;5075385;28;20488;-48
2023/06/12 08:09:08;;;;;;;10.43;3.67;;;25.30;53.70;;;;;;5074825;28;20024;-47
2023/06/12 08:11:34;;;;;;;7.13;3.90;;;25.40;52.90;;;;;;5068759;28;20263;-49
2023/06/12 08:14:00;;;;;;;5.38;3.25;;;26.70;51.20;;;;;;5078127;28;20031;-48
2023/06/12 08:16:26;;;;;;;3.70;2.60;;;28.10;50.50;;;;;;5072752;28;20020;-48
2023/06/12 08:18:52;;;;;;;4.70;3.17;;;29.50;48.20;;;;;;5070243;28;20039;-51
2023/06/12 08:21:18;;;;;;;7.07;3.05;;;30.30;47.00;;;;;;5081471;28;20032;-48
2023/06/12 08:23:44;;;;;;;5.38;2.80;;;30.50;45.30;;;;;;5068377;28;20555;-47
2023/06/12 08:26:10;;;;;;;7.50;3.65;;;31.50;44.90;;;;;;5077642;28;20028;-49
2023/06/12 08:28:37;;;;;;;6.10;3.08;;;32.60;44.20;;;;;;5074423;28;20024;-47
2023/06/12 08:31:04;;;;;;;5.50;3.40;;;33.10;43.30;;;;;;5066981;28;20023;-50
2023/06/12 08:33:30;;;;;;;7.97;2.97;;;33.10;43.30;;;;;;5070847;28;20025;-47
2023/06/12 08:35:58;;;;;;;6.63;3.60;;;33.90;40.80;;;;;;5064369;28;20501;-50
2023/06/12 08:38:23;;;;;;;4.53;2.92;;;34.90;39.70;;;;;;5072103;28;20031;-50
2023/06/12 08:40:56;;;;;;;3.88;3.10;;;35.00;40.10;;;;;;5078745;28;20024;-47
2023/06/12 08:43:21;;;;;;;4.82;2.80;;;35.60;38.60;;;;;;5067110;28;20016;-47
2023/06/12 08:45:50;;;;;;;3.08;2.75;;;35.70;39.00;;;;;;5066779;28;20051;-48
2023/06/12 08:48:18;;;;;;;5.70;3.50;;;36.00;38.00;;;;;;5077014;28;20077;-46
2023/06/12 08:50:45;;;;;;;5.60;2.92;;;36.50;37.80;;;;;;5078225;28;20029;-47
2023/06/12 08:53:12;;;;;;;5.18;3.22;;;36.90;36.60;;;;;;5063111;28;20032;-44
2023/06/12 08:55:41;;;;;;;4.53;3.10;;;37.20;37.00;;;;;;5074883;28;20021;-45
2023/06/12 08:58:07;;;;;;;5.88;3.10;;;37.70;35.80;;;;;;5058777;28;20036;-42
2023/06/12 09:00:33;;;;;;;7.40;3.22;;;37.90;35.40;;;;;;5064214;28;20142;-43
2023/06/12 09:03:00;;;;;;;4.90;2.85;;;37.90;34.40;;;;;;5046430;28;20029;-48
2023/06/12 09:05:33;;;;;;;8.18;3.03;;;37.50;34.80;;;;;;5068402;28;20063;-47
2023/06/12 09:08:00;;;;;;;6.45;2.60;;;38.50;34.00;;;;;;5064376;28;20115;-47
2023/06/12 09:10:26;;;;;;;5.88;2.97;;;38.10;34.30;;;;;;5067262;28;20394;-48
2023/06/12 09:12:56;;;;;;;3.97;2.90;;;37.80;33.90;;;;;;5072204;28;20016;-47
2023/06/12 09:15:23;;;;;;;5.82;3.13;;;38.20;34.10;;;;;;5058120;28;20024;-50
2023/06/12 09:17:53;;;;;;;5.13;2.90;;;37.90;32.50;;;;;;5064908;28;21683;-49
2023/06/12 09:20:24;;;;;;;3.08;2.58;;;38.10;33.60;;;;;;5077686;28;20070;-48
2023/06/12 09:22:53;;;;;;;4.07;2.58;;;38.50;33.30;;;;;;5072686;28;20274;-51
2023/06/12 09:25:19;;;;;;;;;;;38.80;33.80;;;;;;5054107;28;20428;-49
2023/06/12 09:27:46;;;;;;;3.10;2.70;;;39.90;32.80;;;;;;5071667;28;20008;-49
2023/06/12 09:30:13;;;;;;;9.48;3.28;;;39.50;33.60;;;;;;5065007;28;20020;-48
2023/06/12 09:32:41;;;;;;;3.70;2.80;;;39.70;32.90;;;;;;5068950;28;20039;-48
2023/06/12 09:35:07;;;;;;;3.67;2.88;;;40.00;33.00;;;;;;5072408;28;20036;-48
2023/06/12 09:37:32;;;;;;;3.08;2.78;;;40.00;32.30;;;;;;5081456;28;20012;-49
2023/06/12 09:40:11;;;;;;;4.25;2.75;;;40.80;32.00;;;;;;5078881;28;20042;-48
2023/06/12 09:42:40;;;;;;;13.77;3.50;;;40.70;31.80;;;;;;5068101;28;20032;-48
2023/06/12 09:45:17;;;;;;;3.90;2.70;;;41.00;31.40;;;;;;5067371;28;20040;-49
2023/06/12 09:47:47;;;;;;;5.57;2.72;;;41.20;31.70;;;;;;5075762;28;20435;-49
2023/06/12 09:50:15;;;;;;;3.55;2.58;;;41.30;31.30;;;;;;5079082;28;20020;-49
2023/06/12 09:52:42;;;;;;;5.55;2.80;;;41.30;31.20;;;;;;5079226;28;20482;-50
2023/06/12 09:55:11;;;;;;;5.82;2.72;;;40.80;31.90;;;;;;5083592;28;20421;-48
2023/06/12 09:57:38;;;;;;;6.28;3.00;;;40.80;31.60;;;;;;5065535;28;20016;-51
2023/06/12 10:00:07;;;;;;;6.55;2.70;;;40.40;32.20;;;;;;5072842;28;20504;-51
2023/06/12 10:02:35;;;;;;;5.13;2.97;;;40.30;31.70;;;;;;5075244;28;20025;-48
2023/06/12 10:05:05;;;;;;;3.47;3.17;;;40.50;31.40;;;;;;5077650;28;20494;-48
2023/06/12 10:07:38;;;;;;;8.52;3.65;;;40.70;31.20;;;;;;5068127;28;20020;-48
2023/06/12 10:10:07;;;;;;;4.88;2.85;;;41.20;30.80;;;;;;5071670;28;20024;-51
2023/06/12 10:12:33;;;;;;;3.13;2.58;;;40.70;32.10;;;;;;5070091;28;20016;-48
2023/06/12 10:15:00;;;;;;;2.88;2.55;;;40.70;31.50;;;;;;5070162;28;20020;-51
2023/06/12 10:17:46;;;;;;;3.67;2.70;;;41.10;30.50;;;;;;5076855;28;20107;-49
2023/06/12 10:20:12;;;;;;;6.13;3.13;;;41.60;30.00;;;;;;5046634;28;20450;-50
2023/06/12 10:22:40;;;;;;;5.45;2.83;;;41.50;29.70;;;;;;5048508;28;20037;-48
2023/06/12 10:25:08;;;;;;;3.85;3.10;;;41.40;29.30;;;;;;5066644;28;20032;-50
2023/06/12 10:27:38;;;;;;;3.05;2.50;;;41.30;29.50;;;;;;5069676;28;20091;-51
2023/06/12 10:30:08;;;;;;;4.80;2.97;;;41.20;29.60;;;;;;5081386;28;20100;-48
2023/06/12 10:32:34;;;;;;;4.88;3.10;;;40.90;30.10;;;;;;5072739;28;20203;-48
2023/06/12 10:35:01;;;;;;;5.03;2.80;;;40.60;29.70;;;;;;5076823;28;20066;-51
2023/06/12 10:37:42;;;;;;;3.38;3.15;;;40.70;29.90;;;;;;5076644;28;20028;-50
2023/06/12 10:40:20;;;;;;;5.97;3.00;;;40.50;30.00;;;;;;5071247;28;20109;-48
2023/06/12 10:42:48;;;;;;;2.70;2.47;;;40.30;29.50;;;;;;5075534;28;20032;-48
2023/06/12 10:45:16;;;;;;;6.07;2.70;;;40.40;30.40;;;;;;5076790;28;20025;-49
2023/06/12 10:47:57;;;;;;;5.43;2.90;;;40.40;29.60;;;;;;5070513;28;20601;-50
2023/06/12 10:50:25;;;;;;;5.30;3.30;;;40.40;29.70;;;;;;5070386;28;20016;-48
2023/06/12 10:52:56;;;;;;;5.43;2.72;;;40.80;29.50;;;;;;5074792;28;20209;-48
2023/06/12 10:55:30;;;;;;;4.43;2.90;;;40.90;30.20;;;;;;5075745;28;20740;-50
2023/06/12 10:58:00;;;;;;;6.80;3.33;;;41.60;29.50;;;;;;5069984;28;20059;-50
2023/06/12 11:00:36;;;;;;;3.63;2.92;;;41.30;29.50;;;;;;5070517;28;20028;-51
2023/06/12 11:03:11;;;;;;;64.63;58.17;;;41.00;29.80;;;;;;5073937;28;20052;-50
2023/06/12 11:05:45;;;;;;;38.75;34.55;;;41.10;30.50;;;;;;5081906;28;20024;-48
2023/06/12 11:08:11;;;;;;;12.70;3.40;;;40.80;30.30;;;;;;5063838;28;20067;-48
2023/06/12 11:10:37;;;;;;;3.97;3.00;;;40.90;30.00;;;;;;5070660;28;20036;-50
2023/06/12 11:13:04;;;;;;;5.38;2.80;;;40.50;30.20;;;;;;5074783;28;20043;-48
2023/06/12 11:15:33;;;;;;;8.85;2.88;;;40.20;30.20;;;;;;5072752;28;20024;-51
2023/06/12 11:17:59;;;;;;;4.63;2.80;;;40.70;30.30;;;;;;5072735;28;20079;-51
2023/06/12 11:20:26;;;;;;;4.38;3.30;;;39.60;29.50;;;;;;5072300;28;20609;-50
2023/06/12 11:23:10;;;;;;;3.65;3.03;;;40.70;29.80;;;;;;5069700;28;20078;-49
2023/06/12 11:25:44;;;;;;;6.93;3.20;;;41.00;30.50;;;;;;5067828;28;20089;-51
2023/06/12 11:28:12;;;;;;;6.05;2.90;;;40.70;30.30;;;;;;5071291;28;20028;-48
2023/06/12 11:30:38;;;;;;;6.15;2.80;;;38.80;31.30;;;;;;5068425;28;20167;-49
2023/06/12 11:33:13;;;;;;;4.32;3.13;;;39.30;31.10;;;;;;5067547;28;20111;-49
2023/06/12 11:35:43;;;;;;;6.68;2.95;;;39.20;30.90;;;;;;5068525;28;20501;-49
2023/06/12 11:38:12;;;;;;;6.13;3.50;;;39.10;32.60;;;;;;5068633;28;20497;-49
2023/06/12 11:40:39;;;;;;;3.67;2.85;;;39.60;31.70;;;;;;5066562;28;20088;-51
2023/06/12 11:43:05;;;;;;;6.25;3.22;;;40.20;32.10;;;;;;5068170;28;20327;-48
2023/06/12 11:45:31;;;;;;;7.80;3.63;;;40.80;31.10;;;;;;5068565;28;20028;-48
2023/06/12 11:47:58;;;;;;;5.25;3.10;;;40.20;32.20;;;;;;5067056;28;20028;-51
2023/06/12 11:50:24;;;;;;;4.13;3.00;;;39.40;32.80;;;;;;5071269;28;20025;-51
2023/06/12 11:52:50;;;;;;;5.90;3.55;;;39.30;33.00;;;;;;5074247;28;20024;-51
2023/06/12 11:55:16;;;;;;;5.63;3.53;;;39.30;32.70;;;;;;5068829;28;20442;-47
2023/06/12 11:57:50;;;;;;;5.53;3.45;;;39.30;32.20;;;;;;5064122;28;20024;-51
2023/06/12 12:00:18;;;;;;;6.97;4.10;;;38.40;33.50;;;;;;5074115;28;20031;-50
2023/06/12 12:02:49;;;;;;;4.40;3.88;;;37.80;33.20;;;;;;5084773;28;20025;-50
2023/06/12 12:05:23;;;;;;;4.88;3.75;;;37.30;33.50;;;;;;5067973;28;20113;-48
2023/06/12 12:07:59;;;;;;;4.20;3.80;;;36.60;32.90;;;;;;5067654;28;20032;-50
2023/06/12 12:10:27;;;;;;;7.10;4.03;;;35.50;34.10;;;;;;5071908;28;20024;-51
2023/06/12 12:12:59;;;;;;;4.78;4.28;;;34.90;34.60;;;;;;5057309;28;20032;-50
2023/06/12 12:15:27;;;;;;;12.38;4.40;;;34.10;35.90;;;;;;5071908;28;20449;-51
2023/06/12 12:17:53;;;;;;;5.28;3.95;;;33.90;36.70;;;;;;5068355;28;20044;-51
2023/06/12 12:20:21;;;;;;;7.05;4.63;;;33.50;35.80;;;;;;5069640;28;20028;-49
2023/06/12 12:22:49;;;;;;;7.07;4.40;;;33.50;37.40;;;;;;5073364;28;20059;-48
2023/06/12 12:25:21;;;;;;;5.88;4.15;;;33.50;37.80;;;;;;5074512;28;20032;-50
2023/06/12 12:27:53;;;;;;;5.60;4.22;;;33.40;36.10;;;;;;5074835;28;20043;-49
2023/06/12 12:30:23;;;;;;;8.57;4.25;;;32.90;36.00;;;;;;5074563;28;20414;-51
2023/06/12 12:32:50;;;;;;;;;;;32.70;37.20;;;;;;5077516;28;20486;-50
2023/06/12 12:35:16;;;;;;;5.18;4.07;;;32.40;39.10;;;;;;5081080;28;19915;-49
2023/06/12 12:37:43;;;;;;;8.52;4.47;;;32.60;37.20;;;;;;5068611;28;20115;-48
2023/06/12 12:40:10;;;;;;;6.97;4.57;;;31.70;36.40;;;;;;5067654;28;20068;-49
2023/06/12 12:42:46;;;;;;;5.90;4.30;;;31.70;36.50;;;;;;5068385;28;20024;-48